Startpagina
METAR-TAF:

METAR-TAF

Vliegvelden :

Luchthaven Ouagadougou Internationaal

Ouagadougou, Burkina Faso

breedte: 12-21N, lengte: 001-31W, hoogte: 316 m

Actueel weer

Dit bericht is 47 minuten geleden gemaakt, om 08:00 UTC
Wind 4 kt uit het westzuidwesten
Temperatuur 26°C
Vochtigheid 84%
Druk 1015 hPa
Zicht: 8000 m
Verspreide wolken op 1600 ft

METAR: DFFD 180800Z 24004KT 8000 SCT016 26/23 Q1015 NOSIG

Tijdstip: 08:47 (08:47 UTC)

Verwachting

Dit bericht is 3 uur en het 47 minuten geleden gemaakt, om 05:00 UTC
Verwachting geldig van 18 om 06 UTC tot 19 om 12 UTC
Wind 10 kt uit het westen
Zicht 10 km of meer
Verspreide wolken op 2000 ft
Tijdelijke
van 18 om 10 UTC tot 18 om 22 UTC
Zicht: 4000 m
Verspreide wolken op 2000 ft
Verspreide wolken op 3600 ft, Cumulonimbus.
onweer, regen

TAF: DFFD 180500Z 1806/1912 26010KT 9999 SCT020 TEMPO 1810/1822 4000 TSRA SCT020 SCT036CB

Waarnemingen en weersverwachtingen van meer dan 4000 vliegvelden (METAR en TAF).

De beschikbare stations zijn de gele en rode punten op de kaart.

Ga met uw muis naar het station om de naam te zien.

Klik dan om waarnemingen en weersverwachtingen te zien.

kaart wijzigen: klik op de groene knoppen met een zwart kruis om in te zoomen, op de groene knop met een streepje om uit te zoomen of op de groene pijlen voor aangrenzende kaarten.


METAR-TAF: